createdAt,value
2019-04-23T00:02:09.027Z,93658.77
2019-04-23T00:04:28.663Z,93663.91
2019-04-23T00:07:15.849Z,93667.16
2019-04-23T00:09:40.991Z,93672.05
2019-04-23T00:12:12.006Z,93673.25
2019-04-23T00:14:47.540Z,93678.89
2019-04-23T00:17:17.899Z,93682.37
2019-04-23T00:19:47.927Z,93679.75
2019-04-23T00:22:13.873Z,93674.73
2019-04-23T00:30:03.990Z,93682.02
2019-04-23T00:32:28.756Z,93684.64
2019-04-23T00:34:54.657Z,93688.13
2019-04-23T00:37:31.329Z,93674.05
2019-04-23T00:42:35.032Z,93680.91
2019-04-23T00:44:56.282Z,93679.23
2019-04-23T00:47:33.312Z,93683.78
2019-04-23T00:50:07.415Z,93678.62
2019-04-23T00:55:12.759Z,93673.95
2019-04-23T00:57:38.840Z,93671.31
2019-04-23T01:00:14.174Z,93672.41
2019-04-23T01:02:37.376Z,93674.13
2019-04-23T01:05:10.953Z,93659.39
2019-04-23T01:07:40.050Z,93661.81
2019-04-23T01:10:25.557Z,93651.06
2019-04-23T01:13:00.052Z,93646.98
2019-04-23T01:15:25.749Z,93649.77
2019-04-23T01:20:37.077Z,93642.31
2019-04-23T01:22:50.889Z,93650.16
2019-04-23T01:25:34.363Z,93642.33
2019-04-23T01:28:28.291Z,93640.87
2019-04-23T01:31:01.513Z,93633.92
2019-04-23T01:33:33.063Z,93635.59
2019-04-23T01:36:12.472Z,93631.65
2019-04-23T01:38:37.527Z,93627.80
2019-04-23T01:40:58.396Z,93624.10
2019-04-23T01:43:30.789Z,93615.59
2019-04-23T01:46:02.740Z,93616.17
2019-04-23T01:48:32.863Z,93616.55
2019-04-23T01:51:09.649Z,93614.27
2019-04-23T01:53:45.569Z,93607.06
2019-04-23T01:56:06.229Z,93604.73
2019-04-23T02:01:21.472Z,93595.08
2019-04-23T02:03:34.731Z,93591.14
2019-04-23T02:06:10.158Z,93586.77
2019-04-23T02:08:32.252Z,93588.42
2019-04-23T02:11:09.716Z,93601.20
2019-04-23T02:16:24.746Z,93594.98
2019-04-23T02:18:38.819Z,93589.33
2019-04-23T02:21:10.581Z,93589.27
2019-04-23T02:23:42.402Z,93594.48
2019-04-23T02:31:35.360Z,93581.67
2019-04-23T02:36:31.688Z,93582.85
2019-04-23T02:41:26.656Z,93574.11
2019-04-23T02:44:04.619Z,93578.05
2019-04-23T02:46:22.745Z,93565.86
2019-04-23T02:48:56.733Z,93562.55
2019-04-23T02:51:39.643Z,93562.27
2019-04-23T02:59:16.382Z,93552.13
2019-04-23T03:06:50.060Z,93547.99
2019-04-23T03:11:43.771Z,93539.20
2019-04-23T03:14:09.411Z,93530.98
2019-04-23T03:19:25.499Z,93526.92
2019-04-23T03:22:01.475Z,93526.69
2019-04-23T03:24:59.940Z,93527.82
2019-04-23T03:27:17.077Z,93522.87
2019-04-23T03:29:51.223Z,93527.06
2019-04-23T03:37:35.626Z,93520.40
2019-04-23T03:45:00.257Z,93516.09
2019-04-23T03:47:26.766Z,93512.83
2019-04-23T03:50:05.292Z,93515.64
2019-04-23T03:52:27.649Z,93512.02
2019-04-23T03:54:46.219Z,93507.31
2019-04-23T03:57:30.650Z,93508.03
2019-04-23T03:59:54.769Z,93517.22
2019-04-23T04:04:45.194Z,93514.02
2019-04-23T04:15:04.271Z,93507.80
2019-04-23T04:19:56.551Z,93507.44
2019-04-23T04:22:37.380Z,93508.70
2019-04-23T04:25:00.935Z,93505.00
2019-04-23T04:27:43.332Z,93507.44
2019-04-23T04:30:03.959Z,93509.67
2019-04-23T04:35:20.966Z,93509.00
2019-04-23T04:42:33.284Z,93503.62
2019-04-23T04:45:30.244Z,93500.14
2019-04-23T04:52:48.952Z,93504.38
2019-04-23T04:55:33.920Z,93512.65
2019-04-23T05:00:15.223Z,93505.05
2019-04-23T05:05:28.981Z,93512.27
2019-04-23T05:07:39.900Z,93507.95
2019-04-23T05:12:40.985Z,93503.70
2019-04-23T05:15:07.424Z,93503.35
2019-04-23T05:18:11.729Z,93511.80
2019-04-23T05:23:06.063Z,93508.75
2019-04-23T05:25:24.275Z,93509.50
2019-04-23T05:30:38.407Z,93512.55
2019-04-23T05:36:02.651Z,93506.59
2019-04-23T05:38:18.555Z,93515.63
2019-04-23T05:40:44.977Z,93510.16
2019-04-23T05:43:11.924Z,93508.09
2019-04-23T05:45:44.645Z,93509.34
2019-04-23T05:50:52.695Z,93511.17
2019-04-23T05:53:23.042Z,93511.97
2019-04-23T05:55:51.600Z,93506.53
2019-04-23T06:00:54.519Z,93519.34
2019-04-23T06:05:58.264Z,93515.74
2019-04-23T06:08:25.259Z,93509.66
2019-04-23T06:11:00.916Z,93514.47
2019-04-23T06:13:26.102Z,93511.19
2019-04-23T06:15:50.415Z,93521.34
2019-04-23T06:18:34.207Z,93516.62
2019-04-23T06:21:03.071Z,93517.77
2019-04-23T06:23:40.076Z,93520.95
2019-04-23T06:26:08.516Z,93525.32
2019-04-23T06:28:27.611Z,93516.32
2019-04-23T06:31:02.958Z,93519.05
2019-04-23T06:38:40.790Z,93526.21
2019-04-23T06:41:05.754Z,93530.80
2019-04-23T06:43:42.023Z,93525.05
2019-04-23T06:46:12.072Z,93520.78
2019-04-23T06:48:44.878Z,93524.03
2019-04-23T06:51:21.727Z,93531.69
2019-04-23T06:53:43.721Z,93533.91
2019-04-23T06:56:21.090Z,93529.94
2019-04-23T06:58:43.337Z,93528.76
2019-04-23T07:01:13.279Z,93529.33
2019-04-23T07:03:51.824Z,93528.75
2019-04-23T07:09:05.163Z,93528.10
2019-04-23T07:11:29.069Z,93528.87
2019-04-23T07:16:17.661Z,93523.13
2019-04-23T07:18:47.031Z,93519.38
2019-04-23T07:23:58.971Z,93532.84
2019-04-23T07:26:30.378Z,93524.22
2019-04-23T07:28:54.662Z,93524.77
2019-04-23T07:31:26.581Z,93518.46
2019-04-23T07:33:57.889Z,93521.88
2019-04-23T07:36:30.976Z,93528.11
2019-04-23T07:39:01.585Z,93528.11
2019-04-23T07:41:56.357Z,93518.88
2019-04-23T07:46:58.293Z,93527.31
2019-04-23T07:49:15.094Z,93528.53
2019-04-23T07:51:55.212Z,93515.84
2019-04-23T07:54:22.852Z,93514.84
2019-04-23T07:56:58.583Z,93510.25
2019-04-23T07:59:31.428Z,93519.58
2019-04-23T08:01:49.227Z,93519.17
2019-04-23T08:04:25.060Z,93510.65
2019-04-23T08:06:56.023Z,93517.44
2019-04-23T08:09:28.095Z,93519.20
2019-04-23T08:11:58.881Z,93516.28
2019-04-23T08:14:15.370Z,93521.17
2019-04-23T08:16:56.179Z,93518.97
2019-04-23T08:19:36.907Z,93522.98
2019-04-23T08:22:04.624Z,93528.72
2019-04-23T08:24:50.722Z,93524.02
2019-04-23T08:27:22.499Z,93535.91
2019-04-23T08:29:47.731Z,93536.55
2019-04-23T08:32:19.327Z,93539.29
2019-04-23T08:34:58.424Z,93536.27
2019-04-23T08:37:36.400Z,93539.15
2019-04-23T08:39:52.146Z,93538.77
2019-04-23T08:42:36.429Z,93540.63
2019-04-23T08:45:31.312Z,93543.08
2019-04-23T08:48:01.197Z,93538.93
2019-04-23T08:50:27.476Z,93539.14
2019-04-23T08:53:07.017Z,93541.09
2019-04-23T08:55:32.653Z,93536.36
2019-04-23T08:57:56.383Z,93538.84
2019-04-23T09:00:32.907Z,93535.56
2019-04-23T09:03:04.892Z,93531.49
2019-04-23T09:08:08.285Z,93541.17
2019-04-23T09:13:29.597Z,93537.95
2019-04-23T09:15:44.962Z,93534.23
2019-04-23T09:18:09.260Z,93533.03
2019-04-23T09:20:31.264Z,93535.66
2019-04-23T09:23:13.543Z,93530.52
2019-04-23T09:25:47.797Z,93535.00
2019-04-23T09:28:24.399Z,93531.92
2019-04-23T09:30:49.705Z,93530.84
2019-04-23T09:33:32.487Z,93541.98
2019-04-23T09:36:13.623Z,93535.62
2019-04-23T09:38:46.860Z,93535.81
2019-04-23T09:44:22.309Z,93531.61
2019-04-23T09:46:38.071Z,93522.87
2019-04-23T09:51:45.232Z,93520.29
2019-04-23T09:54:09.157Z,93523.69
2019-04-23T09:56:44.609Z,93523.69
2019-04-23T09:59:17.405Z,93522.02
2019-04-23T10:01:52.868Z,93513.75
2019-04-23T10:03:57.599Z,93519.61
2019-04-23T10:06:22.654Z,93516.68
2019-04-23T10:08:52.002Z,93516.88
2019-04-23T10:11:19.570Z,93510.81
2019-04-23T10:13:50.366Z,93506.22
2019-04-23T10:16:22.010Z,93506.73
2019-04-23T10:18:51.019Z,93503.54
2019-04-23T10:21:21.352Z,93498.16
2019-04-23T10:23:51.674Z,93495.03
2019-04-23T10:26:21.864Z,93494.02
2019-04-23T10:29:00.143Z,93490.74
2019-04-23T10:31:29.213Z,93488.50
2019-04-23T10:33:58.162Z,93491.50
2019-04-23T10:36:28.271Z,93488.03
2019-04-23T10:39:03.562Z,93489.47
2019-04-23T10:41:30.154Z,93492.61
2019-04-23T10:44:00.863Z,93494.42
2019-04-23T10:46:53.157Z,93485.32
2019-04-23T10:54:41.249Z,93482.17
2019-04-23T10:57:03.940Z,93475.83
2019-04-23T10:59:43.250Z,93469.34
2019-04-23T11:02:35.849Z,93467.09
2019-04-23T11:07:28.507Z,93464.72
2019-04-23T11:10:50.196Z,93461.63
2019-04-23T11:15:10.526Z,93456.55
2019-04-23T11:17:33.206Z,93453.13
2019-04-23T11:20:07.900Z,93447.48
2019-04-23T11:22:42.295Z,93446.61
2019-04-23T11:24:59.440Z,93450.05
2019-04-23T11:30:10.066Z,93445.28
2019-04-23T11:32:47.205Z,93442.34
2019-04-23T11:35:11.537Z,93437.47
2019-04-23T11:37:41.196Z,93443.20
2019-04-23T11:40:09.190Z,93436.45
2019-04-23T11:42:38.971Z,93437.76
2019-04-23T11:45:06.313Z,93429.74
2019-04-23T11:50:24.189Z,93426.11
2019-04-23T11:55:26.203Z,93421.03
2019-04-23T11:57:54.953Z,93426.89
2019-04-23T12:00:15.734Z,93415.77
2019-04-23T12:02:49.634Z,93423.05
2019-04-23T12:05:26.844Z,93415.42
2019-04-23T12:08:07.368Z,93420.95
2019-04-23T12:13:11.874Z,93414.70
2019-04-23T12:18:19.937Z,93415.65
2019-04-23T12:20:57.505Z,93404.59
2019-04-23T12:23:25.934Z,93402.09
2019-04-23T12:25:47.549Z,93401.32
2019-04-23T12:28:23.535Z,93405.66
2019-04-23T12:33:31.770Z,93409.41
2019-04-23T12:35:47.501Z,93406.52
2019-04-23T12:38:19.179Z,93411.38
2019-04-23T12:40:52.943Z,93405.21
2019-04-23T12:43:23.801Z,93403.28
2019-04-23T12:45:47.308Z,93406.25
2019-04-23T12:55:50.445Z,93401.14
2019-04-23T12:58:26.874Z,93403.59
2019-04-23T13:00:55.901Z,93402.94
2019-04-23T13:03:29.972Z,93402.88
2019-04-23T13:05:55.429Z,93398.81
2019-04-23T13:11:23.840Z,93392.05
2019-04-23T13:13:38.848Z,93396.72
2019-04-23T13:18:41.447Z,93394.86
2019-04-23T13:21:15.900Z,93386.92
2019-04-23T13:23:34.617Z,93385.17
2019-04-23T13:26:04.200Z,93383.02
2019-04-23T13:28:37.517Z,93386.77
2019-04-23T13:31:10.557Z,93376.37
2019-04-23T13:36:26.446Z,93379.80
2019-04-23T13:38:54.771Z,93390.97
2019-04-23T13:43:45.737Z,93377.61
2019-04-23T13:46:32.695Z,93382.03
2019-04-23T13:48:42.040Z,93383.08
2019-04-23T13:51:20.995Z,93385.00
2019-04-23T13:56:24.470Z,93383.23
2019-04-23T13:58:51.857Z,93385.00
2019-04-23T14:01:26.251Z,93381.26
2019-04-23T14:04:01.013Z,93380.13
2019-04-23T14:11:29.489Z,93383.83
2019-04-23T14:16:34.124Z,93390.09
2019-04-23T14:18:58.405Z,93395.17
2019-04-23T14:24:11.999Z,93396.06
2019-04-23T14:26:29.645Z,93386.33
2019-04-23T14:29:13.018Z,93383.02
2019-04-23T14:31:23.165Z,93384.98
2019-04-23T14:34:11.536Z,93390.75
2019-04-23T14:39:05.711Z,93391.61
2019-04-23T14:44:11.352Z,93392.95
2019-04-23T14:49:04.240Z,93398.28
2019-04-23T14:54:17.030Z,93399.57
2019-04-23T14:56:44.933Z,93405.66
2019-04-23T14:59:10.631Z,93402.23
2019-04-23T15:01:47.459Z,93406.02
2019-04-23T15:04:10.988Z,93400.00
2019-04-23T15:06:55.740Z,93409.56
2019-04-23T15:09:22.990Z,93404.22
2019-04-23T15:11:59.725Z,93408.25
2019-04-23T15:14:19.403Z,93408.89
2019-04-23T15:16:57.099Z,93410.88
2019-04-23T15:24:27.972Z,93409.73
2019-04-23T15:29:06.078Z,93426.66
2019-04-23T15:31:55.651Z,93426.09
2019-04-23T15:37:14.104Z,93429.73
2019-04-23T15:42:08.111Z,93436.52
2019-04-23T15:44:45.335Z,93441.14
2019-04-23T15:47:01.903Z,93441.02
2019-04-23T15:49:28.733Z,93441.76
2019-04-23T15:54:37.146Z,93443.73
2019-04-23T15:57:01.214Z,93443.50
2019-04-23T16:01:42.633Z,93453.05
2019-04-23T16:04:06.752Z,93453.42
2019-04-23T16:06:38.521Z,93452.45
2019-04-23T16:09:32.837Z,93458.43
2019-04-23T16:11:59.588Z,93454.28
2019-04-23T16:14:52.026Z,93456.34
2019-04-23T16:17:14.087Z,93453.01
2019-04-23T16:19:54.133Z,93454.52
2019-04-23T16:22:18.965Z,93455.25
2019-04-23T16:24:48.757Z,93454.74
2019-04-23T16:32:33.128Z,93465.52
2019-04-23T16:35:10.313Z,93467.20
2019-04-23T16:37:28.413Z,93466.06
2019-04-23T16:40:01.434Z,93462.95
2019-04-23T16:45:06.343Z,93470.30
2019-04-23T16:47:28.213Z,93476.59
2019-04-23T16:50:04.906Z,93467.38
2019-04-23T16:52:26.422Z,93466.38
2019-04-23T16:54:59.264Z,93471.89
2019-04-23T17:00:20.985Z,93476.59
2019-04-23T17:07:24.182Z,93460.16
2019-04-23T17:10:08.249Z,93460.16
2019-04-23T17:12:21.095Z,93466.09
2019-04-23T17:17:31.217Z,93468.44
2019-04-23T17:20:08.933Z,93479.91
2019-04-23T17:22:39.060Z,93478.41
2019-04-23T17:25:13.769Z,93480.74
2019-04-23T17:30:12.002Z,93470.80
2019-04-23T17:33:02.819Z,93475.14
2019-04-23T17:35:29.782Z,93482.81
2019-04-23T17:38:07.674Z,93491.20
2019-04-23T17:40:59.776Z,93483.21
2019-04-23T17:43:35.052Z,93482.83
2019-04-23T17:45:54.372Z,93486.09
2019-04-23T17:48:34.483Z,93487.95
2019-04-23T17:54:06.989Z,93485.39
2019-04-23T17:56:40.549Z,93493.27
2019-04-23T17:58:54.723Z,93497.98
2019-04-23T18:01:22.593Z,93501.33
2019-04-23T18:06:30.187Z,93500.73
2019-04-23T18:14:00.534Z,93498.52
2019-04-23T18:19:00.726Z,93513.27
2019-04-23T18:21:39.327Z,93521.12
2019-04-23T18:24:13.363Z,93520.73
2019-04-23T18:27:00.622Z,93520.86
2019-04-23T18:29:31.558Z,93524.28
2019-04-23T18:32:11.354Z,93533.39
2019-04-23T18:35:03.884Z,93529.62
2019-04-23T18:37:17.861Z,93537.73
2019-04-23T18:39:46.655Z,93545.28
2019-04-23T18:42:18.235Z,93549.48
2019-04-23T18:44:52.147Z,93546.55
2019-04-23T18:52:30.976Z,93559.30
2019-04-23T18:54:48.984Z,93562.11
2019-04-23T18:57:12.902Z,93566.25
2019-04-23T19:02:37.283Z,93576.63
2019-04-23T19:05:28.958Z,93580.55
2019-04-23T19:08:01.042Z,93597.59
2019-04-23T19:10:30.724Z,93600.81
2019-04-23T19:13:14.160Z,93605.27
2019-04-23T19:15:38.315Z,93609.64
2019-04-23T19:18:04.478Z,93616.38
2019-04-23T19:20:53.403Z,93616.27
2019-04-23T19:23:16.500Z,93627.44
2019-04-23T19:25:57.743Z,93629.77
2019-04-23T19:29:43.905Z,93639.91
2019-04-23T19:37:02.400Z,93651.30
2019-04-23T19:39:36.781Z,93649.38
2019-04-23T19:47:17.107Z,93662.34
2019-04-23T19:52:47.769Z,93662.59
2019-04-23T19:54:52.678Z,93670.84
2019-04-23T19:57:12.038Z,93681.30
2019-04-23T20:02:17.477Z,93681.19
2019-04-23T20:04:45.986Z,93682.50
2019-04-23T20:07:20.019Z,93677.34
2019-04-23T20:14:47.704Z,93696.08
2019-04-23T20:19:48.216Z,93696.08
2019-04-23T20:22:25.474Z,93703.74
2019-04-23T20:27:17.948Z,93705.87
2019-04-23T20:31:39.362Z,93702.54
2019-04-23T20:32:56.859Z,93705.25
2019-04-23T20:34:59.129Z,93701.67
2019-04-23T20:37:46.367Z,93697.81
2019-04-23T20:42:44.562Z,93705.37
2019-04-23T20:47:33.489Z,93710.52
2019-04-23T20:50:03.422Z,93714.93
2019-04-23T20:52:13.758Z,93716.41
2019-04-23T20:55:02.040Z,93716.77
2019-04-23T21:00:35.841Z,93719.39
2019-04-23T21:03:16.992Z,93713.27
2019-04-23T21:05:21.717Z,93713.27
2019-04-23T21:07:57.947Z,93717.84
2019-04-23T21:33:35.218Z,93748.94
2019-04-23T21:36:13.410Z,93744.66
2019-04-23T21:39:01.230Z,93749.82
2019-04-23T21:46:36.522Z,93751.81
2019-04-23T21:56:38.493Z,93752.97
2019-04-23T22:04:15.122Z,93770.18
2019-04-23T22:06:43.150Z,93780.11
2019-04-23T22:09:12.419Z,93786.28
2019-04-23T22:14:19.333Z,93791.48
2019-04-23T22:17:01.580Z,93802.70
2019-04-23T22:19:15.486Z,93794.45
2019-04-23T22:21:54.463Z,93797.94
2019-04-23T22:24:11.498Z,93805.83
2019-04-23T22:26:58.071Z,93808.45
2019-04-23T22:29:18.423Z,93809.07
2019-04-23T22:31:47.262Z,93808.66
2019-04-23T22:34:22.110Z,93808.66
2019-04-23T22:37:01.878Z,93815.19
2019-04-23T22:39:27.649Z,93813.09
2019-04-23T22:44:22.326Z,93819.91
2019-04-23T22:46:57.071Z,93816.23
2019-04-23T22:52:06.426Z,93804.95
2019-04-23T22:54:23.617Z,93800.41
2019-04-23T23:02:07.408Z,93811.86
2019-04-23T23:04:42.314Z,93819.10
2019-04-23T23:07:10.535Z,93817.99
2019-04-23T23:09:43.888Z,93825.88
2019-04-23T23:12:17.664Z,93825.91
2019-04-23T23:14:47.490Z,93830.50
2019-04-23T23:17:11.431Z,93826.98
2019-04-23T23:19:58.010Z,93831.70
2019-04-23T23:22:11.940Z,93833.70
2019-04-23T23:24:48.399Z,93829.57
2019-04-23T23:27:30.176Z,93817.50
2019-04-23T23:29:49.413Z,93824.35
2019-04-23T23:32:14.604Z,93831.17
2019-04-23T23:35:05.757Z,93831.38
2019-04-23T23:37:16.636Z,93832.41
2019-04-23T23:39:49.595Z,93832.23
2019-04-23T23:42:16.212Z,93828.44
2019-04-23T23:45:10.903Z,93831.86
2019-04-23T23:47:29.803Z,93832.35
2019-04-23T23:49:56.354Z,93826.04
2019-04-23T23:52:27.009Z,93831.30
2019-04-23T23:54:52.548Z,93827.61
2019-04-23T23:57:23.487Z,93833.48
